sensor_id;sensor_type;location;lat;lon;timestamp;P1;durP1;ratioP1;P2;durP2;ratioP2
40052;SDS011;25758;48.200;16.338;2023-08-20T00:00:10;10.88;;;8.52;;
40052;SDS011;25758;48.200;16.338;2023-08-20T00:02:37;10.77;;;9.43;;
40052;SDS011;25758;48.200;16.338;2023-08-20T00:05:05;10.98;;;9.63;;
40052;SDS011;25758;48.200;16.338;2023-08-20T00:07:31;11.10;;;9.48;;
40052;SDS011;25758;48.200;16.338;2023-08-20T00:09:57;12.60;;;9.48;;
40052;SDS011;25758;48.200;16.338;2023-08-20T00:12:23;11.55;;;9.40;;
40052;SDS011;25758;48.200;16.338;2023-08-20T00:14:51;12.00;;;9.57;;
40052;SDS011;25758;48.200;16.338;2023-08-20T00:17:21;11.90;;;9.27;;
40052;SDS011;25758;48.200;16.338;2023-08-20T00:19:49;10.13;;;8.88;;
40052;SDS011;25758;48.200;16.338;2023-08-20T00:22:16;11.43;;;10.30;;
40052;SDS011;25758;48.200;16.338;2023-08-20T00:24:42;13.15;;;9.75;;
40052;SDS011;25758;48.200;16.338;2023-08-20T00:27:08;10.70;;;9.30;;
40052;SDS011;25758;48.200;16.338;2023-08-20T00:29:34;10.13;;;8.90;;
40052;SDS011;25758;48.200;16.338;2023-08-20T00:31:59;10.85;;;9.15;;
40052;SDS011;25758;48.200;16.338;2023-08-20T00:34:25;10.80;;;9.18;;
40052;SDS011;25758;48.200;16.338;2023-08-20T00:36:50;9.20;;;8.20;;
40052;SDS011;25758;48.200;16.338;2023-08-20T00:39:16;9.80;;;8.80;;
40052;SDS011;25758;48.200;16.338;2023-08-20T00:41:41;11.75;;;9.93;;
40052;SDS011;25758;48.200;16.338;2023-08-20T00:44:07;13.85;;;9.60;;
40052;SDS011;25758;48.200;16.338;2023-08-20T00:46:32;13.60;;;9.32;;
40052;SDS011;25758;48.200;16.338;2023-08-20T00:48:58;13.10;;;9.68;;
40052;SDS011;25758;48.200;16.338;2023-08-20T00:51:24;10.63;;;9.63;;
40052;SDS011;25758;48.200;16.338;2023-08-20T00:53:50;10.02;;;8.52;;
40052;SDS011;25758;48.200;16.338;2023-08-20T00:56:16;11.15;;;9.60;;
40052;SDS011;25758;48.200;16.338;2023-08-20T00:58:42;11.07;;;9.30;;
40052;SDS011;25758;48.200;16.338;2023-08-20T01:01:08;12.80;;;9.43;;
40052;SDS011;25758;48.200;16.338;2023-08-20T01:03:33;11.02;;;9.60;;
40052;SDS011;25758;48.200;16.338;2023-08-20T01:06:19;11.75;;;10.55;;
40052;SDS011;25758;48.200;16.338;2023-08-20T01:08:53;11.60;;;9.68;;
40052;SDS011;25758;48.200;16.338;2023-08-20T01:11:30;11.77;;;10.52;;
40052;SDS011;25758;48.200;16.338;2023-08-20T01:14:13;13.30;;;9.38;;
40052;SDS011;25758;48.200;16.338;2023-08-20T01:16:40;10.48;;;9.48;;
40052;SDS011;25758;48.200;16.338;2023-08-20T01:19:06;12.50;;;9.45;;
40052;SDS011;25758;48.200;16.338;2023-08-20T01:21:39;10.00;;;8.93;;
40052;SDS011;25758;48.200;16.338;2023-08-20T01:30:14;10.75;;;8.70;;
40052;SDS011;25758;48.200;16.338;2023-08-20T01:32:40;9.98;;;8.98;;
40052;SDS011;25758;48.200;16.338;2023-08-20T01:35:08;11.85;;;9.25;;
40052;SDS011;25758;48.200;16.338;2023-08-20T01:37:38;11.07;;;9.98;;
40052;SDS011;25758;48.200;16.338;2023-08-20T01:40:04;15.02;;;10.25;;
40052;SDS011;25758;48.200;16.338;2023-08-20T01:42:32;10.10;;;8.93;;
40052;SDS011;25758;48.200;16.338;2023-08-20T01:44:58;11.60;;;10.40;;
40052;SDS011;25758;48.200;16.338;2023-08-20T01:47:23;10.35;;;9.20;;
40052;SDS011;25758;48.200;16.338;2023-08-20T01:49:49;10.55;;;9.45;;
40052;SDS011;25758;48.200;16.338;2023-08-20T01:52:14;11.15;;;9.02;;
40052;SDS011;25758;48.200;16.338;2023-08-20T01:54:40;12.88;;;9.55;;
40052;SDS011;25758;48.200;16.338;2023-08-20T01:57:06;12.50;;;9.68;;
40052;SDS011;25758;48.200;16.338;2023-08-20T01:59:31;11.73;;;9.13;;
40052;SDS011;25758;48.200;16.338;2023-08-20T02:01:57;10.93;;;9.80;;
40052;SDS011;25758;48.200;16.338;2023-08-20T02:04:22;12.65;;;8.98;;
40052;SDS011;25758;48.200;16.338;2023-08-20T02:06:48;13.05;;;9.48;;
40052;SDS011;25758;48.200;16.338;2023-08-20T02:09:14;10.27;;;9.27;;
40052;SDS011;25758;48.200;16.338;2023-08-20T02:11:39;12.02;;;9.20;;
40052;SDS011;25758;48.200;16.338;2023-08-20T02:14:05;10.10;;;9.10;;
40052;SDS011;25758;48.200;16.338;2023-08-20T02:16:31;11.40;;;9.27;;
40052;SDS011;25758;48.200;16.338;2023-08-20T02:18:57;11.20;;;9.38;;
40052;SDS011;25758;48.200;16.338;2023-08-20T02:21:22;9.65;;;8.75;;
40052;SDS011;25758;48.200;16.338;2023-08-20T02:23:48;10.00;;;8.88;;
40052;SDS011;25758;48.200;16.338;2023-08-20T02:26:13;10.07;;;8.98;;
40052;SDS011;25758;48.200;16.338;2023-08-20T02:28:40;10.75;;;9.35;;
40052;SDS011;25758;48.200;16.338;2023-08-20T02:31:05;11.77;;;9.10;;
40052;SDS011;25758;48.200;16.338;2023-08-20T02:33:31;9.65;;;8.65;;
40052;SDS011;25758;48.200;16.338;2023-08-20T02:36:03;11.00;;;9.30;;
40052;SDS011;25758;48.200;16.338;2023-08-20T02:38:29;10.60;;;9.47;;
40052;SDS011;25758;48.200;16.338;2023-08-20T02:40:55;10.30;;;9.27;;
40052;SDS011;25758;48.200;16.338;2023-08-20T02:43:21;10.20;;;9.18;;
40052;SDS011;25758;48.200;16.338;2023-08-20T02:45:46;9.77;;;8.77;;
40052;SDS011;25758;48.200;16.338;2023-08-20T02:48:13;13.93;;;9.18;;
40052;SDS011;25758;48.200;16.338;2023-08-20T02:50:39;10.65;;;9.20;;
40052;SDS011;25758;48.200;16.338;2023-08-20T02:53:05;9.88;;;8.55;;
40052;SDS011;25758;48.200;16.338;2023-08-20T02:55:31;13.15;;;9.02;;
40052;SDS011;25758;48.200;16.338;2023-08-20T02:57:57;12.75;;;9.65;;
40052;SDS011;25758;48.200;16.338;2023-08-20T03:00:23;10.25;;;8.82;;
40052;SDS011;25758;48.200;16.338;2023-08-20T03:02:49;9.63;;;8.45;;
40052;SDS011;25758;48.200;16.338;2023-08-20T03:05:14;10.88;;;9.20;;
40052;SDS011;25758;48.200;16.338;2023-08-20T03:07:40;8.98;;;8.07;;
40052;SDS011;25758;48.200;16.338;2023-08-20T03:10:06;15.13;;;9.43;;
40052;SDS011;25758;48.200;16.338;2023-08-20T03:12:32;10.30;;;9.30;;
40052;SDS011;25758;48.200;16.338;2023-08-20T03:14:57;10.73;;;9.60;;
40052;SDS011;25758;48.200;16.338;2023-08-20T03:17:24;17.73;;;10.45;;
40052;SDS011;25758;48.200;16.338;2023-08-20T03:19:53;10.50;;;9.40;;
40052;SDS011;25758;48.200;16.338;2023-08-20T03:22:23;13.38;;;9.35;;
40052;SDS011;25758;48.200;16.338;2023-08-20T03:24:50;10.30;;;9.18;;
40052;SDS011;25758;48.200;16.338;2023-08-20T03:27:17;9.85;;;8.90;;
40052;SDS011;25758;48.200;16.338;2023-08-20T03:29:42;9.93;;;8.93;;
40052;SDS011;25758;48.200;16.338;2023-08-20T03:32:09;13.48;;;9.20;;
40052;SDS011;25758;48.200;16.338;2023-08-20T03:34:35;10.43;;;9.43;;
40052;SDS011;25758;48.200;16.338;2023-08-20T03:37:01;10.45;;;9.35;;
40052;SDS011;25758;48.200;16.338;2023-08-20T03:39:27;11.82;;;9.48;;
40052;SDS011;25758;48.200;16.338;2023-08-20T03:41:53;11.05;;;9.88;;
40052;SDS011;25758;48.200;16.338;2023-08-20T03:44:18;10.40;;;9.40;;
40052;SDS011;25758;48.200;16.338;2023-08-20T03:46:44;10.88;;;9.32;;
40052;SDS011;25758;48.200;16.338;2023-08-20T03:49:10;11.45;;;10.25;;
40052;SDS011;25758;48.200;16.338;2023-08-20T03:51:36;9.73;;;8.82;;
40052;SDS011;25758;48.200;16.338;2023-08-20T03:54:02;12.07;;;10.63;;
40052;SDS011;25758;48.200;16.338;2023-08-20T03:56:28;15.50;;;10.65;;
40052;SDS011;25758;48.200;16.338;2023-08-20T03:58:54;11.05;;;9.93;;
40052;SDS011;25758;48.200;16.338;2023-08-20T04:01:20;10.45;;;9.35;;
40052;SDS011;25758;48.200;16.338;2023-08-20T04:03:46;10.68;;;9.63;;
40052;SDS011;25758;48.200;16.338;2023-08-20T04:06:12;12.55;;;9.60;;
40052;SDS011;25758;48.200;16.338;2023-08-20T04:08:37;13.32;;;10.80;;
40052;SDS011;25758;48.200;16.338;2023-08-20T04:11:03;11.60;;;10.23;;
40052;SDS011;25758;48.200;16.338;2023-08-20T04:13:29;10.82;;;9.32;;
40052;SDS011;25758;48.200;16.338;2023-08-20T04:15:55;10.35;;;9.20;;
40052;SDS011;25758;48.200;16.338;2023-08-20T04:18:21;10.38;;;9.07;;
40052;SDS011;25758;48.200;16.338;2023-08-20T04:20:47;13.30;;;9.48;;
40052;SDS011;25758;48.200;16.338;2023-08-20T04:23:14;12.27;;;9.52;;
40052;SDS011;25758;48.200;16.338;2023-08-20T04:25:40;11.63;;;10.38;;
40052;SDS011;25758;48.200;16.338;2023-08-20T04:28:06;11.35;;;9.63;;
40052;SDS011;25758;48.200;16.338;2023-08-20T04:30:31;10.85;;;9.68;;
40052;SDS011;25758;48.200;16.338;2023-08-20T04:32:57;11.02;;;9.75;;
40052;SDS011;25758;48.200;16.338;2023-08-20T04:35:22;11.02;;;10.02;;
40052;SDS011;25758;48.200;16.338;2023-08-20T04:37:48;11.55;;;9.93;;
40052;SDS011;25758;48.200;16.338;2023-08-20T04:40:14;11.38;;;10.23;;
40052;SDS011;25758;48.200;16.338;2023-08-20T04:42:39;11.30;;;9.95;;
40052;SDS011;25758;48.200;16.338;2023-08-20T04:45:05;11.43;;;10.18;;
40052;SDS011;25758;48.200;16.338;2023-08-20T04:47:31;10.70;;;9.68;;
40052;SDS011;25758;48.200;16.338;2023-08-20T04:49:57;10.50;;;9.52;;
40052;SDS011;25758;48.200;16.338;2023-08-20T04:52:23;12.43;;;9.93;;
40052;SDS011;25758;48.200;16.338;2023-08-20T04:54:49;12.23;;;9.98;;
40052;SDS011;25758;48.200;16.338;2023-08-20T04:57:14;14.75;;;10.07;;
40052;SDS011;25758;48.200;16.338;2023-08-20T04:59:41;10.75;;;9.68;;
40052;SDS011;25758;48.200;16.338;2023-08-20T05:02:10;15.85;;;10.10;;
40052;SDS011;25758;48.200;16.338;2023-08-20T05:04:39;11.77;;;10.57;;
40052;SDS011;25758;48.200;16.338;2023-08-20T05:07:05;12.90;;;9.98;;
40052;SDS011;25758;48.200;16.338;2023-08-20T05:09:31;12.68;;;10.32;;
40052;SDS011;25758;48.200;16.338;2023-08-20T05:11:57;10.52;;;9.38;;
40052;SDS011;25758;48.200;16.338;2023-08-20T05:14:23;11.40;;;10.10;;
40052;SDS011;25758;48.200;16.338;2023-08-20T05:16:49;11.35;;;9.60;;
40052;SDS011;25758;48.200;16.338;2023-08-20T05:19:14;12.30;;;11.02;;
40052;SDS011;25758;48.200;16.338;2023-08-20T05:21:40;12.48;;;11.07;;
40052;SDS011;25758;48.200;16.338;2023-08-20T05:24:05;14.35;;;10.95;;
40052;SDS011;25758;48.200;16.338;2023-08-20T05:26:31;11.80;;;10.52;;
40052;SDS011;25758;48.200;16.338;2023-08-20T05:28:57;12.63;;;10.73;;
40052;SDS011;25758;48.200;16.338;2023-08-20T05:31:22;13.82;;;10.43;;
40052;SDS011;25758;48.200;16.338;2023-08-20T05:33:48;11.20;;;10.10;;
40052;SDS011;25758;48.200;16.338;2023-08-20T05:36:14;16.83;;;10.38;;
40052;SDS011;25758;48.200;16.338;2023-08-20T05:38:39;12.38;;;11.02;;
40052;SDS011;25758;48.200;16.338;2023-08-20T05:41:07;11.88;;;10.60;;
40052;SDS011;25758;48.200;16.338;2023-08-20T05:43:33;14.48;;;11.60;;
40052;SDS011;25758;48.200;16.338;2023-08-20T05:45:59;11.95;;;10.63;;
40052;SDS011;25758;48.200;16.338;2023-08-20T05:48:24;13.07;;;11.15;;
40052;SDS011;25758;48.200;16.338;2023-08-20T05:50:50;14.68;;;10.55;;
40052;SDS011;25758;48.200;16.338;2023-08-20T05:53:15;14.75;;;10.85;;
40052;SDS011;25758;48.200;16.338;2023-08-20T05:55:41;13.40;;;11.23;;
40052;SDS011;25758;48.200;16.338;2023-08-20T05:58:07;11.98;;;10.77;;
40052;SDS011;25758;48.200;16.338;2023-08-20T06:00:32;14.65;;;10.48;;
40052;SDS011;25758;48.200;16.338;2023-08-20T06:02:58;13.88;;;12.30;;
40052;SDS011;25758;48.200;16.338;2023-08-20T06:05:23;13.48;;;10.65;;
40052;SDS011;25758;48.200;16.338;2023-08-20T06:07:49;12.23;;;11.02;;
40052;SDS011;25758;48.200;16.338;2023-08-20T06:10:15;12.65;;;10.88;;
40052;SDS011;25758;48.200;16.338;2023-08-20T06:12:40;11.00;;;9.93;;
40052;SDS011;25758;48.200;16.338;2023-08-20T06:15:07;11.45;;;10.35;;
40052;SDS011;25758;48.200;16.338;2023-08-20T06:17:33;10.52;;;9.52;;
40052;SDS011;25758;48.200;16.338;2023-08-20T06:19:59;10.65;;;8.88;;
40052;SDS011;25758;48.200;16.338;2023-08-20T06:22:24;9.80;;;8.90;;
40052;SDS011;25758;48.200;16.338;2023-08-20T06:24:50;9.70;;;8.77;;
40052;SDS011;25758;48.200;16.338;2023-08-20T06:27:16;10.60;;;8.95;;
40052;SDS011;25758;48.200;16.338;2023-08-20T06:29:42;11.45;;;9.13;;
40052;SDS011;25758;48.200;16.338;2023-08-20T06:32:08;10.82;;;8.55;;
40052;SDS011;25758;48.200;16.338;2023-08-20T06:34:34;12.25;;;9.10;;
40052;SDS011;25758;48.200;16.338;2023-08-20T06:37:00;9.55;;;8.65;;
40052;SDS011;25758;48.200;16.338;2023-08-20T06:39:25;11.02;;;9.95;;
40052;SDS011;25758;48.200;16.338;2023-08-20T06:41:51;12.05;;;9.77;;
40052;SDS011;25758;48.200;16.338;2023-08-20T06:44:17;9.43;;;8.52;;
40052;SDS011;25758;48.200;16.338;2023-08-20T06:46:42;10.07;;;9.18;;
40052;SDS011;25758;48.200;16.338;2023-08-20T06:49:08;11.18;;;9.75;;
40052;SDS011;25758;48.200;16.338;2023-08-20T06:51:33;9.15;;;8.27;;
40052;SDS011;25758;48.200;16.338;2023-08-20T06:53:59;9.73;;;8.70;;
40052;SDS011;25758;48.200;16.338;2023-08-20T06:56:24;9.50;;;8.65;;
40052;SDS011;25758;48.200;16.338;2023-08-20T06:58:50;9.48;;;8.40;;
40052;SDS011;25758;48.200;16.338;2023-08-20T07:01:16;10.15;;;8.52;;
40052;SDS011;25758;48.200;16.338;2023-08-20T07:03:42;11.15;;;8.57;;
40052;SDS011;25758;48.200;16.338;2023-08-20T07:06:09;8.68;;;7.88;;
40052;SDS011;25758;48.200;16.338;2023-08-20T07:08:36;8.35;;;7.40;;
40052;SDS011;25758;48.200;16.338;2023-08-20T07:11:04;10.82;;;8.13;;
40052;SDS011;25758;48.200;16.338;2023-08-20T07:13:30;8.40;;;7.60;;
40052;SDS011;25758;48.200;16.338;2023-08-20T07:15:55;9.30;;;8.40;;
40052;SDS011;25758;48.200;16.338;2023-08-20T07:18:21;10.30;;;8.02;;
40052;SDS011;25758;48.200;16.338;2023-08-20T07:20:47;15.68;;;11.02;;
40052;SDS011;25758;48.200;16.338;2023-08-20T07:23:12;9.45;;;8.40;;
40052;SDS011;25758;48.200;16.338;2023-08-20T07:25:38;9.65;;;8.05;;
40052;SDS011;25758;48.200;16.338;2023-08-20T07:28:05;10.20;;;7.65;;
40052;SDS011;25758;48.200;16.338;2023-08-20T07:30:32;13.13;;;11.25;;
40052;SDS011;25758;48.200;16.338;2023-08-20T07:32:57;8.63;;;7.82;;
40052;SDS011;25758;48.200;16.338;2023-08-20T07:35:24;8.07;;;7.22;;
40052;SDS011;25758;48.200;16.338;2023-08-20T07:37:49;8.57;;;7.78;;
40052;SDS011;25758;48.200;16.338;2023-08-20T07:40:15;8.13;;;7.43;;
40052;SDS011;25758;48.200;16.338;2023-08-20T07:42:41;8.90;;;8.00;;
40052;SDS011;25758;48.200;16.338;2023-08-20T07:45:07;8.77;;;7.93;;
40052;SDS011;25758;48.200;16.338;2023-08-20T07:47:35;9.43;;;8.52;;
40052;SDS011;25758;48.200;16.338;2023-08-20T07:50:01;8.25;;;7.43;;
40052;SDS011;25758;48.200;16.338;2023-08-20T07:52:27;11.82;;;8.65;;
40052;SDS011;25758;48.200;16.338;2023-08-20T07:54:53;9.90;;;7.72;;
40052;SDS011;25758;48.200;16.338;2023-08-20T07:57:18;9.20;;;7.18;;
40052;SDS011;25758;48.200;16.338;2023-08-20T07:59:44;9.90;;;8.48;;
40052;SDS011;25758;48.200;16.338;2023-08-20T08:02:09;9.40;;;8.40;;
40052;SDS011;25758;48.200;16.338;2023-08-20T08:04:35;9.77;;;7.97;;
40052;SDS011;25758;48.200;16.338;2023-08-20T08:07:01;10.05;;;8.43;;
40052;SDS011;25758;48.200;16.338;2023-08-20T08:09:27;11.27;;;9.65;;
40052;SDS011;25758;48.200;16.338;2023-08-20T08:11:55;14.57;;;10.35;;
40052;SDS011;25758;48.200;16.338;2023-08-20T08:14:21;12.40;;;9.05;;
40052;SDS011;25758;48.200;16.338;2023-08-20T08:16:46;12.43;;;10.18;;
40052;SDS011;25758;48.200;16.338;2023-08-20T08:19:12;10.38;;;9.15;;
40052;SDS011;25758;48.200;16.338;2023-08-20T08:21:38;10.07;;;9.07;;
40052;SDS011;25758;48.200;16.338;2023-08-20T08:24:04;9.88;;;8.88;;
40052;SDS011;25758;48.200;16.338;2023-08-20T08:26:30;11.48;;;10.35;;
40052;SDS011;25758;48.200;16.338;2023-08-20T08:28:56;9.55;;;8.55;;
40052;SDS011;25758;48.200;16.338;2023-08-20T08:31:23;11.52;;;8.13;;
40052;SDS011;25758;48.200;16.338;2023-08-20T08:33:48;11.82;;;10.05;;
40052;SDS011;25758;48.200;16.338;2023-08-20T08:36:14;8.68;;;7.63;;
40052;SDS011;25758;48.200;16.338;2023-08-20T08:38:41;10.02;;;8.50;;
40052;SDS011;25758;48.200;16.338;2023-08-20T08:41:10;10.82;;;8.75;;
40052;SDS011;25758;48.200;16.338;2023-08-20T08:43:37;9.18;;;8.27;;
40052;SDS011;25758;48.200;16.338;2023-08-20T08:46:07;10.77;;;8.15;;
40052;SDS011;25758;48.200;16.338;2023-08-20T08:48:36;8.35;;;7.47;;
40052;SDS011;25758;48.200;16.338;2023-08-20T08:51:05;12.85;;;7.60;;
40052;SDS011;25758;48.200;16.338;2023-08-20T08:53:30;10.88;;;8.10;;
40052;SDS011;25758;48.200;16.338;2023-08-20T08:55:57;8.60;;;7.70;;
40052;SDS011;25758;48.200;16.338;2023-08-20T08:58:23;9.40;;;8.00;;
40052;SDS011;25758;48.200;16.338;2023-08-20T09:00:50;9.80;;;8.90;;
40052;SDS011;25758;48.200;16.338;2023-08-20T09:03:15;9.82;;;8.57;;
40052;SDS011;25758;48.200;16.338;2023-08-20T09:05:54;11.10;;;8.00;;
40052;SDS011;25758;48.200;16.338;2023-08-20T09:08:28;10.40;;;9.38;;
40052;SDS011;25758;48.200;16.338;2023-08-20T09:10:56;12.35;;;8.65;;
40052;SDS011;25758;48.200;16.338;2023-08-20T09:13:23;13.20;;;9.18;;
40052;SDS011;25758;48.200;16.338;2023-08-20T09:15:50;8.13;;;7.32;;
40052;SDS011;25758;48.200;16.338;2023-08-20T09:18:17;8.43;;;7.63;;
40052;SDS011;25758;48.200;16.338;2023-08-20T09:20:43;10.82;;;8.70;;
40052;SDS011;25758;48.200;16.338;2023-08-20T09:23:11;8.88;;;7.93;;
40052;SDS011;25758;48.200;16.338;2023-08-20T09:25:38;8.35;;;7.07;;
40052;SDS011;25758;48.200;16.338;2023-08-20T09:28:04;9.93;;;7.00;;
40052;SDS011;25758;48.200;16.338;2023-08-20T09:30:30;8.70;;;7.90;;
40052;SDS011;25758;48.200;16.338;2023-08-20T09:33:03;9.10;;;7.63;;
40052;SDS011;25758;48.200;16.338;2023-08-20T09:35:32;9.70;;;8.48;;
40052;SDS011;25758;48.200;16.338;2023-08-20T09:38:01;7.82;;;7.10;;
40052;SDS011;25758;48.200;16.338;2023-08-20T09:40:28;9.32;;;7.50;;
40052;SDS011;25758;48.200;16.338;2023-08-20T09:42:54;8.15;;;7.35;;
40052;SDS011;25758;48.200;16.338;2023-08-20T09:45:21;9.77;;;6.85;;
40052;SDS011;25758;48.200;16.338;2023-08-20T09:47:49;8.80;;;7.30;;
40052;SDS011;25758;48.200;16.338;2023-08-20T09:50:19;9.20;;;7.22;;
40052;SDS011;25758;48.200;16.338;2023-08-20T09:52:49;8.18;;;7.32;;
40052;SDS011;25758;48.200;16.338;2023-08-20T09:55:18;11.13;;;8.73;;
40052;SDS011;25758;48.200;16.338;2023-08-20T09:57:47;8.88;;;7.55;;
40052;SDS011;25758;48.200;16.338;2023-08-20T10:00:13;12.95;;;8.82;;
40052;SDS011;25758;48.200;16.338;2023-08-20T10:02:39;11.20;;;8.57;;
40052;SDS011;25758;48.200;16.338;2023-08-20T10:05:07;8.05;;;6.78;;
40052;SDS011;25758;48.200;16.338;2023-08-20T10:07:34;8.68;;;6.90;;
40052;SDS011;25758;48.200;16.338;2023-08-20T10:10:01;9.38;;;7.30;;
40052;SDS011;25758;48.200;16.338;2023-08-20T10:12:29;8.52;;;7.45;;
40052;SDS011;25758;48.200;16.338;2023-08-20T10:14:56;8.80;;;7.00;;
40052;SDS011;25758;48.200;16.338;2023-08-20T10:17:25;7.93;;;7.13;;
40052;SDS011;25758;48.200;16.338;2023-08-20T10:19:55;8.00;;;7.20;;
40052;SDS011;25758;48.200;16.338;2023-08-20T10:22:24;7.28;;;6.57;;
40052;SDS011;25758;48.200;16.338;2023-08-20T10:25:10;7.90;;;7.20;;
40052;SDS011;25758;48.200;16.338;2023-08-20T10:27:40;10.23;;;6.38;;
40052;SDS011;25758;48.200;16.338;2023-08-20T10:30:10;8.07;;;6.00;;
40052;SDS011;25758;48.200;16.338;2023-08-20T10:35:11;6.32;;;5.63;;
40052;SDS011;25758;48.200;16.338;2023-08-20T10:37:37;7.25;;;5.47;;
40052;SDS011;25758;48.200;16.338;2023-08-20T10:40:05;6.75;;;5.30;;
40052;SDS011;25758;48.200;16.338;2023-08-20T10:42:32;5.88;;;5.13;;
40052;SDS011;25758;48.200;16.338;2023-08-20T10:45:08;5.63;;;4.35;;
40052;SDS011;25758;48.200;16.338;2023-08-20T10:47:41;5.80;;;4.43;;
40052;SDS011;25758;48.200;16.338;2023-08-20T10:50:08;5.55;;;5.03;;
40052;SDS011;25758;48.200;16.338;2023-08-20T10:52:39;6.20;;;4.50;;
40052;SDS011;25758;48.200;16.338;2023-08-20T10:55:06;6.20;;;4.57;;
40052;SDS011;25758;48.200;16.338;2023-08-20T10:57:34;5.63;;;5.03;;
40052;SDS011;25758;48.200;16.338;2023-08-20T11:00:01;5.07;;;4.20;;
40052;SDS011;25758;48.200;16.338;2023-08-20T11:02:36;4.68;;;3.40;;
40052;SDS011;25758;48.200;16.338;2023-08-20T11:05:03;5.10;;;3.50;;
40052;SDS011;25758;48.200;16.338;2023-08-20T11:07:41;5.90;;;4.43;;
40052;SDS011;25758;48.200;16.338;2023-08-20T11:10:06;6.95;;;3.40;;
40052;SDS011;25758;48.200;16.338;2023-08-20T11:12:33;7.10;;;4.43;;
40052;SDS011;25758;48.200;16.338;2023-08-20T11:15:01;7.07;;;3.88;;
40052;SDS011;25758;48.200;16.338;2023-08-20T11:17:27;9.43;;;4.18;;
40052;SDS011;25758;48.200;16.338;2023-08-20T11:19:53;4.35;;;3.80;;
40052;SDS011;25758;48.200;16.338;2023-08-20T11:22:19;4.85;;;3.50;;
40052;SDS011;25758;48.200;16.338;2023-08-20T11:24:45;5.35;;;4.10;;
40052;SDS011;25758;48.200;16.338;2023-08-20T11:27:11;5.25;;;3.65;;
40052;SDS011;25758;48.200;16.338;2023-08-20T11:29:37;4.50;;;3.45;;
40052;SDS011;25758;48.200;16.338;2023-08-20T11:32:07;4.25;;;3.58;;
40052;SDS011;25758;48.200;16.338;2023-08-20T11:34:33;10.95;;;3.40;;
40052;SDS011;25758;48.200;16.338;2023-08-20T11:36:58;6.45;;;3.60;;
40052;SDS011;25758;48.200;16.338;2023-08-20T11:39:24;4.43;;;2.75;;
40052;SDS011;25758;48.200;16.338;2023-08-20T11:41:50;4.80;;;3.40;;
40052;SDS011;25758;48.200;16.338;2023-08-20T11:44:19;4.50;;;3.60;;
40052;SDS011;25758;48.200;16.338;2023-08-20T11:46:46;4.28;;;3.42;;
40052;SDS011;25758;48.200;16.338;2023-08-20T11:49:12;4.15;;;3.75;;
40052;SDS011;25758;48.200;16.338;2023-08-20T11:51:40;3.33;;;3.03;;
40052;SDS011;25758;48.200;16.338;2023-08-20T11:54:18;4.32;;;3.50;;
40052;SDS011;25758;48.200;16.338;2023-08-20T11:56:44;5.10;;;3.15;;
40052;SDS011;25758;48.200;16.338;2023-08-20T11:59:11;5.10;;;3.30;;
40052;SDS011;25758;48.200;16.338;2023-08-20T12:01:37;6.20;;;3.20;;
40052;SDS011;25758;48.200;16.338;2023-08-20T12:04:03;4.63;;;3.58;;
40052;SDS011;25758;48.200;16.338;2023-08-20T12:06:30;5.18;;;2.90;;
40052;SDS011;25758;48.200;16.338;2023-08-20T12:08:56;5.03;;;3.38;;
40052;SDS011;25758;48.200;16.338;2023-08-20T12:11:26;3.20;;;2.90;;
40052;SDS011;25758;48.200;16.338;2023-08-20T12:13:52;5.68;;;3.10;;
40052;SDS011;25758;48.200;16.338;2023-08-20T12:16:21;7.25;;;3.50;;
40052;SDS011;25758;48.200;16.338;2023-08-20T12:18:48;3.33;;;3.03;;
40052;SDS011;25758;48.200;16.338;2023-08-20T12:21:14;3.70;;;2.78;;
40052;SDS011;25758;48.200;16.338;2023-08-20T12:23:39;8.48;;;4.10;;
40052;SDS011;25758;48.200;16.338;2023-08-20T12:26:05;6.13;;;3.47;;
40052;SDS011;25758;48.200;16.338;2023-08-20T12:28:30;5.88;;;3.85;;
40052;SDS011;25758;48.200;16.338;2023-08-20T12:30:56;5.70;;;3.40;;
40052;SDS011;25758;48.200;16.338;2023-08-20T12:33:22;4.15;;;2.83;;
40052;SDS011;25758;48.200;16.338;2023-08-20T12:35:48;4.95;;;2.80;;
40052;SDS011;25758;48.200;16.338;2023-08-20T12:38:14;4.30;;;2.78;;
40052;SDS011;25758;48.200;16.338;2023-08-20T12:40:40;3.67;;;2.63;;
40052;SDS011;25758;48.200;16.338;2023-08-20T12:43:06;3.00;;;2.55;;
40052;SDS011;25758;48.200;16.338;2023-08-20T12:45:32;3.55;;;3.25;;
40052;SDS011;25758;48.200;16.338;2023-08-20T12:47:57;4.78;;;4.28;;
40052;SDS011;25758;48.200;16.338;2023-08-20T12:50:23;4.80;;;3.17;;
40052;SDS011;25758;48.200;16.338;2023-08-20T12:52:50;5.57;;;3.40;;
40052;SDS011;25758;48.200;16.338;2023-08-20T12:55:16;4.45;;;3.30;;
40052;SDS011;25758;48.200;16.338;2023-08-20T12:57:51;6.07;;;3.85;;
40052;SDS011;25758;48.200;16.338;2023-08-20T13:00:19;8.48;;;3.47;;
40052;SDS011;25758;48.200;16.338;2023-08-20T13:02:46;4.50;;;3.03;;
40052;SDS011;25758;48.200;16.338;2023-08-20T13:05:12;5.32;;;3.28;;
40052;SDS011;25758;48.200;16.338;2023-08-20T13:07:39;5.15;;;3.25;;
40052;SDS011;25758;48.200;16.338;2023-08-20T13:10:05;3.28;;;2.80;;
40052;SDS011;25758;48.200;16.338;2023-08-20T13:12:33;2.50;;;2.28;;
40052;SDS011;25758;48.200;16.338;2023-08-20T13:14:59;3.97;;;3.25;;
40052;SDS011;25758;48.200;16.338;2023-08-20T13:17:27;8.32;;;4.13;;
40052;SDS011;25758;48.200;16.338;2023-08-20T13:19:52;5.18;;;3.60;;
40052;SDS011;25758;48.200;16.338;2023-08-20T13:22:18;5.22;;;3.67;;
40052;SDS011;25758;48.200;16.338;2023-08-20T13:24:44;5.15;;;3.45;;
40052;SDS011;25758;48.200;16.338;2023-08-20T13:27:09;4.65;;;3.47;;
40052;SDS011;25758;48.200;16.338;2023-08-20T13:29:35;3.92;;;3.38;;
40052;SDS011;25758;48.200;16.338;2023-08-20T13:32:01;4.53;;;3.47;;
40052;SDS011;25758;48.200;16.338;2023-08-20T13:34:27;4.38;;;3.25;;
40052;SDS011;25758;48.200;16.338;2023-08-20T13:36:52;7.38;;;3.88;;
40052;SDS011;25758;48.200;16.338;2023-08-20T13:39:18;5.03;;;3.25;;
40052;SDS011;25758;48.200;16.338;2023-08-20T13:41:45;3.35;;;3.05;;
40052;SDS011;25758;48.200;16.338;2023-08-20T13:44:15;6.43;;;3.53;;
40052;SDS011;25758;48.200;16.338;2023-08-20T13:46:41;8.80;;;4.13;;
40052;SDS011;25758;48.200;16.338;2023-08-20T13:49:07;5.07;;;4.03;;
40052;SDS011;25758;48.200;16.338;2023-08-20T13:51:32;4.47;;;3.20;;
40052;SDS011;25758;48.200;16.338;2023-08-20T13:53:58;6.97;;;3.63;;
40052;SDS011;25758;48.200;16.338;2023-08-20T13:56:24;5.07;;;2.60;;
40052;SDS011;25758;48.200;16.338;2023-08-20T13:58:51;9.10;;;3.38;;
40052;SDS011;25758;48.200;16.338;2023-08-20T14:01:18;5.20;;;3.25;;
40052;SDS011;25758;48.200;16.338;2023-08-20T14:03:44;3.58;;;3.10;;
40052;SDS011;25758;48.200;16.338;2023-08-20T14:06:11;4.50;;;3.00;;
40052;SDS011;25758;48.200;16.338;2023-08-20T14:08:37;3.63;;;3.22;;
40052;SDS011;25758;48.200;16.338;2023-08-20T14:11:03;4.90;;;3.50;;
40052;SDS011;25758;48.200;16.338;2023-08-20T14:13:29;3.95;;;2.97;;
40052;SDS011;25758;48.200;16.338;2023-08-20T14:15:55;3.95;;;3.30;;
40052;SDS011;25758;48.200;16.338;2023-08-20T14:18:21;2.80;;;2.45;;
40052;SDS011;25758;48.200;16.338;2023-08-20T14:20:47;4.25;;;3.13;;
40052;SDS011;25758;48.200;16.338;2023-08-20T14:23:13;4.28;;;2.80;;
40052;SDS011;25758;48.200;16.338;2023-08-20T14:25:39;3.92;;;2.90;;
40052;SDS011;25758;48.200;16.338;2023-08-20T14:28:06;3.42;;;2.95;;
40052;SDS011;25758;48.200;16.338;2023-08-20T14:30:36;7.30;;;3.75;;